createdAt,value
2019-05-19T00:01:15.517Z,95053.76
2019-05-19T00:03:49.124Z,95056.98
2019-05-19T00:06:21.037Z,95052.81
2019-05-19T00:08:55.151Z,95047.34
2019-05-19T00:11:28.016Z,95044.27
2019-05-19T00:14:01.019Z,95043.73
2019-05-19T00:16:32.728Z,95049.83
2019-05-19T00:19:05.654Z,95040.47
2019-05-19T00:21:38.121Z,95034.67
2019-05-19T00:24:13.636Z,95031.95
2019-05-19T00:26:44.992Z,95032.42
2019-05-19T00:29:18.366Z,95039.87
2019-05-19T00:31:52.931Z,95041.27
2019-05-19T00:34:24.215Z,95045.28
2019-05-19T00:36:59.004Z,95044.15
2019-05-19T00:39:31.203Z,95041.63
2019-05-19T00:42:03.287Z,95037.35
2019-05-19T00:44:37.569Z,95025.30
2019-05-19T00:47:09.376Z,95021.92
2019-05-19T00:49:42.329Z,95023.98
2019-05-19T00:52:15.362Z,95027.43
2019-05-19T00:54:50.014Z,95021.50
2019-05-19T00:57:26.263Z,95014.38
2019-05-19T01:00:01.008Z,95022.02
2019-05-19T01:02:32.309Z,95019.78
2019-05-19T01:05:07.616Z,94895.46
2019-05-19T01:07:39.384Z,95006.31
2019-05-19T01:10:12.665Z,95006.38
2019-05-19T01:12:44.416Z,95006.27
2019-05-19T01:15:17.333Z,95004.70
2019-05-19T01:17:51.260Z,94989.46
2019-05-19T01:20:24.292Z,94987.00
2019-05-19T01:22:58.847Z,94994.38
2019-05-19T01:25:31.315Z,94993.14
2019-05-19T01:28:03.348Z,94993.41
2019-05-19T01:30:36.949Z,94993.30
2019-05-19T01:33:11.268Z,94995.59
2019-05-19T01:35:45.540Z,94996.53
2019-05-19T01:38:18.389Z,94995.50
2019-05-19T01:40:50.506Z,94993.48
2019-05-19T01:43:25.939Z,94993.48
2019-05-19T01:45:58.610Z,94994.58
2019-05-19T01:48:30.449Z,94995.97
2019-05-19T01:51:03.434Z,94990.72
2019-05-19T01:53:39.697Z,94995.89
2019-05-19T01:56:11.345Z,94990.20
2019-05-19T01:58:44.760Z,94989.33
2019-05-19T02:01:19.414Z,94992.51
2019-05-19T02:03:51.646Z,94993.87
2019-05-19T02:06:24.671Z,94994.91
2019-05-19T02:08:58.513Z,94994.13
2019-05-19T02:11:29.753Z,94918.59
2019-05-19T02:14:04.376Z,94986.05
2019-05-19T02:16:39.255Z,94985.42
2019-05-19T02:19:13.241Z,94985.48
2019-05-19T02:21:46.101Z,94989.43
2019-05-19T02:24:19.352Z,94992.25
2019-05-19T02:26:53.119Z,94988.61
2019-05-19T02:29:26.682Z,94991.06
2019-05-19T02:32:01.878Z,94992.96
2019-05-19T02:34:33.687Z,94993.37
2019-05-19T02:37:05.664Z,94985.27
2019-05-19T02:39:37.969Z,94990.26
2019-05-19T02:42:13.224Z,94995.69
2019-05-19T02:44:46.355Z,94995.67
2019-05-19T02:47:19.794Z,94989.54
2019-05-19T02:49:53.410Z,94992.61
2019-05-19T02:52:27.386Z,94988.62
2019-05-19T02:55:01.886Z,94984.05
2019-05-19T02:57:34.387Z,94980.25
2019-05-19T03:00:07.124Z,94981.07
2019-05-19T03:02:40.477Z,94985.53
2019-05-19T03:05:12.075Z,94987.84
2019-05-19T03:07:44.834Z,94986.88
2019-05-19T03:10:17.723Z,94988.75
2019-05-19T03:12:50.847Z,94984.36
2019-05-19T03:15:22.273Z,94982.50
2019-05-19T03:17:54.436Z,94989.27
2019-05-19T03:20:27.030Z,94987.79
2019-05-19T03:22:59.924Z,94991.73
2019-05-19T03:25:32.931Z,94991.42
2019-05-19T03:28:05.865Z,94990.91
2019-05-19T03:31:08.922Z,94987.22
2019-05-19T03:33:44.165Z,94995.42
2019-05-19T03:36:16.023Z,94997.12
2019-05-19T03:38:50.045Z,95002.91
2019-05-19T03:41:24.023Z,94998.34
2019-05-19T03:43:58.424Z,94995.84
2019-05-19T03:46:29.922Z,94995.06
2019-05-19T03:49:04.374Z,94996.50
2019-05-19T03:51:36.405Z,94997.33
2019-05-19T03:54:10.192Z,94998.23
2019-05-19T03:56:42.137Z,94989.69
2019-05-19T03:59:16.397Z,94984.77
2019-05-19T04:01:49.685Z,94984.50
2019-05-19T04:04:21.338Z,94989.54
2019-05-19T04:06:55.178Z,94993.63
2019-05-19T04:09:27.418Z,94991.12
2019-05-19T04:12:00.160Z,94983.85
2019-05-19T04:14:34.770Z,94991.16
2019-05-19T04:17:06.030Z,94988.98
2019-05-19T04:19:37.283Z,94990.39
2019-05-19T04:22:09.230Z,94988.17
2019-05-19T04:24:45.416Z,94983.39
2019-05-19T04:27:18.303Z,94981.84
2019-05-19T04:29:50.340Z,94983.95
2019-05-19T04:32:24.405Z,94985.59
2019-05-19T04:34:58.678Z,94980.09
2019-05-19T04:37:31.129Z,94977.11
2019-05-19T04:40:03.224Z,94981.81
2019-05-19T04:42:38.300Z,94980.69
2019-05-19T04:45:12.394Z,94975.71
2019-05-19T04:47:46.580Z,94983.25
2019-05-19T04:50:19.996Z,94977.88
2019-05-19T04:52:53.065Z,94975.83
2019-05-19T04:55:25.860Z,94982.23
2019-05-19T04:57:58.227Z,94980.77
2019-05-19T05:00:30.358Z,94980.30
2019-05-19T05:03:03.358Z,94984.80
2019-05-19T05:05:36.683Z,94977.88
2019-05-19T05:08:25.231Z,94973.45
2019-05-19T05:10:43.334Z,94971.67
2019-05-19T05:13:16.653Z,94976.17
2019-05-19T05:15:48.375Z,94971.05
2019-05-19T05:18:21.480Z,94974.74
2019-05-19T05:20:54.205Z,94969.18
2019-05-19T05:23:27.637Z,94972.92
2019-05-19T05:26:00.641Z,94965.21
2019-05-19T05:28:33.519Z,94965.65
2019-05-19T05:31:09.707Z,94963.01
2019-05-19T05:33:42.714Z,94961.67
2019-05-19T05:36:15.678Z,94955.83
2019-05-19T05:38:48.718Z,94957.19
2019-05-19T05:41:21.470Z,94961.74
2019-05-19T05:43:55.625Z,94967.72
2019-05-19T05:46:28.923Z,94968.56
2019-05-19T05:49:00.673Z,94964.42
2019-05-19T05:51:35.185Z,94965.56
2019-05-19T05:54:06.434Z,94971.39
2019-05-19T05:56:37.794Z,94976.22
2019-05-19T05:59:09.899Z,94976.22
2019-05-19T06:01:44.530Z,94982.16
2019-05-19T06:04:18.624Z,94975.41
2019-05-19T06:06:54.203Z,94974.45
2019-05-19T06:09:29.547Z,94977.84
2019-05-19T06:12:05.765Z,94976.55
2019-05-19T06:14:40.905Z,94970.61
2019-05-19T06:17:12.870Z,94971.91
2019-05-19T06:19:46.488Z,94964.97
2019-05-19T06:22:19.885Z,94966.56
2019-05-19T06:24:53.809Z,94972.20
2019-05-19T06:27:27.546Z,94971.02
2019-05-19T06:29:59.981Z,94964.08
2019-05-19T06:32:36.934Z,94964.55
2019-05-19T06:35:09.980Z,94963.19
2019-05-19T06:37:41.774Z,94972.97
2019-05-19T06:40:15.921Z,94966.77
2019-05-19T06:42:48.768Z,94965.89
2019-05-19T06:45:22.982Z,94965.25
2019-05-19T06:47:54.302Z,94960.89
2019-05-19T06:50:26.757Z,94968.45
2019-05-19T06:53:13.256Z,94966.67
2019-05-19T06:55:36.004Z,94967.30
2019-05-19T06:58:09.963Z,94964.08
2019-05-19T07:00:42.921Z,94957.83
2019-05-19T07:03:14.980Z,94955.53
2019-05-19T07:05:48.931Z,94945.26
2019-05-19T07:08:20.859Z,94951.39
2019-05-19T07:10:54.380Z,94948.03
2019-05-19T07:13:27.052Z,94951.62
2019-05-19T07:16:02.611Z,94946.55
2019-05-19T07:18:35.408Z,94947.11
2019-05-19T07:21:08.309Z,94940.95
2019-05-19T07:23:42.654Z,94902.55
2019-05-19T07:26:15.051Z,94941.18
2019-05-19T07:28:47.037Z,94930.58
2019-05-19T07:31:21.191Z,94924.56
2019-05-19T07:33:54.518Z,94923.15
2019-05-19T07:36:28.748Z,94925.20
2019-05-19T07:39:01.888Z,94924.25
2019-05-19T07:41:35.610Z,94924.16
2019-05-19T07:44:10.212Z,94918.70
2019-05-19T07:46:43.094Z,94926.08
2019-05-19T07:49:16.330Z,94924.48
2019-05-19T07:51:49.368Z,94919.84
2019-05-19T07:54:21.049Z,94921.67
2019-05-19T07:56:54.301Z,94925.37
2019-05-19T07:59:28.465Z,94928.25
2019-05-19T08:02:01.484Z,94923.82
2019-05-19T08:04:33.389Z,94928.23
2019-05-19T08:07:05.969Z,94929.17
2019-05-19T08:09:39.290Z,94929.83
2019-05-19T08:12:12.306Z,94933.37
2019-05-19T08:14:44.337Z,94930.05
2019-05-19T08:17:18.298Z,94926.31
2019-05-19T08:19:50.544Z,94926.97
2019-05-19T08:22:57.391Z,94920.94
2019-05-19T08:25:30.311Z,94920.56
2019-05-19T08:28:08.600Z,94917.13
2019-05-19T08:30:40.277Z,94919.16
2019-05-19T08:33:12.592Z,94921.08
2019-05-19T08:35:47.781Z,94920.41
2019-05-19T08:38:21.300Z,94916.14
2019-05-19T08:40:55.455Z,94912.75
2019-05-19T08:43:27.489Z,94920.95
2019-05-19T08:46:00.419Z,94912.06
2019-05-19T08:48:33.864Z,94910.59
2019-05-19T08:51:06.524Z,94903.58
2019-05-19T08:53:41.133Z,94902.30
2019-05-19T08:56:12.411Z,94899.89
2019-05-19T08:58:47.157Z,94901.20
2019-05-19T09:01:18.389Z,94899.39
2019-05-19T09:03:50.441Z,94904.44
2019-05-19T09:06:24.136Z,94903.57
2019-05-19T09:08:59.159Z,94911.69
2019-05-19T09:11:31.346Z,94899.90
2019-05-19T09:14:05.427Z,94903.59
2019-05-19T09:16:39.460Z,94904.81
2019-05-19T09:19:12.553Z,94899.82
2019-05-19T09:21:46.554Z,94906.48
2019-05-19T09:24:29.977Z,94902.81
2019-05-19T09:26:55.673Z,94904.06
2019-05-19T09:29:28.751Z,94901.99
2019-05-19T09:32:01.494Z,94908.45
2019-05-19T09:34:34.377Z,94900.11
2019-05-19T09:37:07.828Z,94905.73
2019-05-19T09:39:47.809Z,94902.56
2019-05-19T09:42:21.612Z,94904.47
2019-05-19T09:44:55.625Z,94902.37
2019-05-19T09:47:28.163Z,94901.95
2019-05-19T09:50:02.286Z,94900.63
2019-05-19T09:52:33.661Z,94897.02
2019-05-19T09:55:06.400Z,94897.17
2019-05-19T09:57:40.728Z,94899.41
2019-05-19T10:00:14.239Z,94896.56
2019-05-19T10:02:47.553Z,94898.33
2019-05-19T10:05:19.082Z,94895.91
2019-05-19T10:07:52.418Z,94898.23
2019-05-19T10:11:16.158Z,94892.55
2019-05-19T10:13:50.338Z,94886.22
2019-05-19T10:16:24.208Z,94878.66
2019-05-19T10:18:59.580Z,94884.30
2019-05-19T10:21:30.791Z,94879.37
2019-05-19T10:24:06.500Z,94880.56
2019-05-19T10:26:56.027Z,94880.77
2019-05-19T10:29:46.193Z,94880.03
2019-05-19T10:32:19.057Z,94874.75
2019-05-19T10:34:57.130Z,94878.45
2019-05-19T10:37:30.973Z,94880.25
2019-05-19T10:40:05.354Z,94882.95
2019-05-19T10:42:37.674Z,94879.91
2019-05-19T10:45:11.789Z,94874.02
2019-05-19T10:47:45.794Z,94878.39
2019-05-19T10:50:18.901Z,94879.13
2019-05-19T10:52:52.326Z,94874.75
2019-05-19T10:55:35.669Z,94876.00
2019-05-19T10:57:59.922Z,94875.77
2019-05-19T11:00:34.338Z,94879.47
2019-05-19T11:03:06.348Z,94878.84
2019-05-19T11:05:40.001Z,94877.81
2019-05-19T11:08:12.995Z,94872.45
2019-05-19T11:10:47.128Z,94878.13
2019-05-19T11:13:22.669Z,94872.68
2019-05-19T11:15:54.291Z,94867.66
2019-05-19T11:18:28.222Z,94856.42
2019-05-19T11:21:03.864Z,94848.86
2019-05-19T11:23:38.104Z,94846.03
2019-05-19T11:26:13.731Z,94842.99
2019-05-19T11:28:46.065Z,94842.56
2019-05-19T11:31:18.042Z,94844.28
2019-05-19T11:33:51.167Z,94841.34
2019-05-19T11:36:25.071Z,94837.01
2019-05-19T11:38:58.235Z,94836.47
2019-05-19T11:41:31.194Z,94828.89
2019-05-19T11:44:03.194Z,94830.50
2019-05-19T11:46:36.172Z,94838.38
2019-05-19T11:49:10.714Z,94833.33
2019-05-19T11:51:43.323Z,94836.51
2019-05-19T11:54:15.160Z,94835.85
2019-05-19T11:56:49.358Z,94838.38
2019-05-19T11:59:23.291Z,94839.83
2019-05-19T12:01:58.011Z,94833.31
2019-05-19T12:04:47.670Z,94832.48
2019-05-19T12:07:20.423Z,94834.44
2019-05-19T12:09:52.439Z,94838.67
2019-05-19T12:12:25.231Z,94840.65
2019-05-19T12:15:02.306Z,94844.94
2019-05-19T12:17:37.114Z,94850.72
2019-05-19T12:20:11.696Z,94854.24
2019-05-19T12:22:49.777Z,94854.17
2019-05-19T12:25:21.306Z,94858.27
2019-05-19T12:27:55.454Z,94862.06
2019-05-19T12:30:29.553Z,94851.59
2019-05-19T12:33:02.564Z,94849.58
2019-05-19T12:35:34.424Z,94852.08
2019-05-19T12:38:06.028Z,94853.55
2019-05-19T12:40:38.731Z,94852.68
2019-05-19T12:43:12.561Z,94848.56
2019-05-19T12:45:45.635Z,94850.56
2019-05-19T12:48:19.191Z,94849.80
2019-05-19T12:50:50.376Z,94848.50
2019-05-19T12:53:25.749Z,94850.72
2019-05-19T12:55:57.521Z,94852.30
2019-05-19T12:58:33.116Z,94853.10
2019-05-19T13:01:12.366Z,94851.11
2019-05-19T13:03:44.766Z,94851.21
2019-05-19T13:06:18.068Z,94850.34
2019-05-19T13:08:51.955Z,94846.28
2019-05-19T13:11:24.522Z,94849.44
2019-05-19T13:13:56.025Z,94845.46
2019-05-19T13:16:29.553Z,94847.70
2019-05-19T13:19:02.966Z,94848.02
2019-05-19T13:21:36.723Z,94844.72
2019-05-19T13:24:09.699Z,94841.58
2019-05-19T13:26:56.191Z,94842.66
2019-05-19T13:29:19.617Z,94849.17
2019-05-19T13:31:53.515Z,94846.36
2019-05-19T13:34:27.741Z,94839.14
2019-05-19T13:37:00.708Z,94844.89
2019-05-19T13:39:32.800Z,94840.16
2019-05-19T13:42:04.788Z,94834.58
2019-05-19T13:44:38.852Z,94833.60
2019-05-19T13:47:12.756Z,94824.81
2019-05-19T13:49:46.255Z,94825.63
2019-05-19T13:52:18.951Z,94827.48
2019-05-19T13:54:50.237Z,94825.48
2019-05-19T13:57:25.582Z,94821.36
2019-05-19T13:59:56.801Z,94827.30
2019-05-19T14:02:30.062Z,94822.04
2019-05-19T14:05:02.198Z,94822.30
2019-05-19T14:07:34.211Z,94820.30
2019-05-19T14:10:07.826Z,94814.92
2019-05-19T14:12:39.479Z,94816.89
2019-05-19T14:15:13.120Z,94810.06
2019-05-19T14:17:45.034Z,94809.21
2019-05-19T14:20:22.634Z,94808.33
2019-05-19T14:22:54.320Z,94812.72
2019-05-19T14:25:27.114Z,94807.30
2019-05-19T14:27:58.754Z,94814.03
2019-05-19T14:30:32.591Z,94809.75
2019-05-19T14:33:05.133Z,94809.72
2019-05-19T14:35:45.196Z,94806.31
2019-05-19T14:38:18.857Z,94807.59
2019-05-19T14:40:52.416Z,94809.20
2019-05-19T14:43:24.956Z,94812.20
2019-05-19T14:46:00.715Z,94816.23
2019-05-19T14:48:33.296Z,94809.16
2019-05-19T14:51:07.219Z,94807.33
2019-05-19T14:53:40.228Z,94798.09
2019-05-19T14:56:13.101Z,94796.58
2019-05-19T14:58:47.276Z,94799.46
2019-05-19T15:01:18.987Z,94797.45
2019-05-19T15:03:51.179Z,94799.36
2019-05-19T15:06:25.285Z,94794.31
2019-05-19T15:08:58.544Z,94794.34
2019-05-19T15:11:32.155Z,94791.80
2019-05-19T15:14:05.408Z,94791.06
2019-05-19T15:16:39.021Z,94787.68
2019-05-19T15:19:10.344Z,94787.30
2019-05-19T15:21:44.857Z,94785.54
2019-05-19T15:24:17.224Z,94788.77
2019-05-19T15:26:50.281Z,94782.34
2019-05-19T15:29:22.445Z,94782.77
2019-05-19T15:31:56.302Z,94774.59
2019-05-19T15:34:28.674Z,94778.94
2019-05-19T15:37:02.217Z,94769.30
2019-05-19T15:39:34.467Z,94768.64
2019-05-19T15:42:06.405Z,94763.56
2019-05-19T15:44:39.919Z,94759.56
2019-05-19T15:47:11.382Z,94763.46
2019-05-19T15:49:43.396Z,94762.22
2019-05-19T15:52:15.530Z,94762.02
2019-05-19T15:54:47.451Z,94756.81
2019-05-19T15:57:18.670Z,94761.14
2019-05-19T15:59:52.426Z,94755.86
2019-05-19T16:02:25.835Z,94757.31
2019-05-19T16:04:59.349Z,94760.24
2019-05-19T16:07:32.909Z,94761.64
2019-05-19T16:10:08.275Z,94757.55
2019-05-19T16:12:41.476Z,94752.90
2019-05-19T16:15:13.918Z,94746.91
2019-05-19T16:17:46.508Z,94750.10
2019-05-19T16:20:20.360Z,94743.22
2019-05-19T16:22:54.761Z,94750.05
2019-05-19T16:25:27.646Z,94750.38
2019-05-19T16:28:01.654Z,94755.27
2019-05-19T16:30:35.708Z,94763.34
2019-05-19T16:33:07.043Z,94761.06
2019-05-19T16:35:39.757Z,94761.42
2019-05-19T16:38:12.655Z,94757.11
2019-05-19T16:40:44.774Z,94754.30
2019-05-19T16:43:17.752Z,94755.70
2019-05-19T16:45:51.911Z,94757.11
2019-05-19T16:48:24.535Z,94754.81
2019-05-19T16:51:00.252Z,94760.12
2019-05-19T16:53:31.464Z,94763.83
2019-05-19T16:56:02.868Z,94760.44
2019-05-19T16:58:44.875Z,94758.16
2019-05-19T17:01:09.068Z,94761.66
2019-05-19T17:03:43.215Z,94759.45
2019-05-19T17:06:17.456Z,94752.18
2019-05-19T17:08:50.673Z,94750.86
2019-05-19T17:11:26.155Z,94750.59
2019-05-19T17:13:57.661Z,94748.91
2019-05-19T17:16:33.195Z,94753.62
2019-05-19T17:19:06.608Z,94757.82
2019-05-19T17:21:38.888Z,94751.11
2019-05-19T17:24:12.725Z,94756.43
2019-05-19T17:26:45.607Z,94759.59
2019-05-19T17:29:19.604Z,94756.24
2019-05-19T17:32:05.311Z,94761.02
2019-05-19T17:34:27.213Z,94768.92
2019-05-19T17:36:58.759Z,94771.39
2019-05-19T17:39:29.971Z,94765.53
2019-05-19T17:42:01.788Z,94762.42
2019-05-19T17:44:35.046Z,94768.02
2019-05-19T17:47:06.602Z,94762.39
2019-05-19T17:49:39.866Z,94759.89
2019-05-19T17:52:12.842Z,94764.19
2019-05-19T17:54:45.805Z,94755.30
2019-05-19T17:57:17.701Z,94753.69
2019-05-19T17:59:51.980Z,94752.88
2019-05-19T18:02:28.164Z,94746.92
2019-05-19T18:05:02.584Z,94750.68
2019-05-19T18:07:35.201Z,94752.38
2019-05-19T18:10:06.807Z,94749.39
2019-05-19T18:12:39.418Z,94757.64
2019-05-19T18:15:13.731Z,94752.17
2019-05-19T18:17:46.170Z,94744.27
2019-05-19T18:20:23.782Z,94740.40
2019-05-19T18:22:53.687Z,94738.40
2019-05-19T18:25:27.064Z,94742.37
2019-05-19T18:28:03.635Z,94744.59
2019-05-19T18:30:37.144Z,94746.47
2019-05-19T18:33:10.964Z,94741.53
2019-05-19T18:35:45.926Z,94747.95
2019-05-19T18:38:18.100Z,94748.01
2019-05-19T18:40:49.331Z,94739.81
2019-05-19T18:43:22.222Z,94738.52
2019-05-19T18:45:56.747Z,94746.02
2019-05-19T18:48:29.201Z,94749.80
2019-05-19T18:51:08.633Z,94749.80
2019-05-19T18:53:45.095Z,94748.71
2019-05-19T18:56:21.975Z,94742.75
2019-05-19T18:58:56.239Z,94737.37
2019-05-19T19:01:29.936Z,94737.16
2019-05-19T19:04:01.202Z,94735.59
2019-05-19T19:06:33.297Z,94748.01
2019-05-19T19:09:05.785Z,94745.88
2019-05-19T19:11:38.335Z,94746.23
2019-05-19T19:14:10.259Z,94734.98
2019-05-19T19:16:47.352Z,94736.16
2019-05-19T19:19:19.198Z,94739.96
2019-05-19T19:21:52.203Z,94736.20
2019-05-19T19:24:28.818Z,94733.55
2019-05-19T19:27:00.349Z,94731.48
2019-05-19T19:29:32.444Z,94724.34
2019-05-19T19:32:06.533Z,94731.12
2019-05-19T19:34:39.534Z,94731.12
2019-05-19T19:37:12.421Z,94726.03
2019-05-19T19:39:45.283Z,94726.84
2019-05-19T19:42:16.662Z,94723.30
2019-05-19T19:44:49.458Z,94718.56
2019-05-19T19:47:23.485Z,94712.37
2019-05-19T19:49:56.485Z,94708.66
2019-05-19T19:52:32.135Z,94709.78
2019-05-19T19:55:05.660Z,94709.44
2019-05-19T19:57:39.555Z,94711.75
2019-05-19T20:00:18.229Z,94711.14
2019-05-19T20:02:51.459Z,94714.28
2019-05-19T20:05:25.940Z,94716.55
2019-05-19T20:07:58.595Z,94719.55
2019-05-19T20:10:31.542Z,94715.93
2019-05-19T20:13:05.766Z,94716.16
2019-05-19T20:15:39.593Z,94719.84
2019-05-19T20:18:14.064Z,94711.66
2019-05-19T20:20:46.831Z,94712.17
2019-05-19T20:23:20.792Z,94717.96
2019-05-19T20:25:53.608Z,94718.20
2019-05-19T20:28:27.646Z,94723.61
2019-05-19T20:31:01.007Z,94724.47
2019-05-19T20:33:38.746Z,94723.38
2019-05-19T20:36:27.103Z,94730.45
2019-05-19T20:38:59.634Z,94747.13
2019-05-19T20:41:35.455Z,94739.73
2019-05-19T20:44:07.145Z,94744.48
2019-05-19T20:46:41.144Z,94741.22
2019-05-19T20:49:13.794Z,94736.78
2019-05-19T20:51:45.516Z,94736.66
2019-05-19T20:54:18.705Z,94738.13
2019-05-19T20:56:52.859Z,94734.95
2019-05-19T20:59:25.706Z,94733.52
2019-05-19T21:01:59.752Z,94739.59
2019-05-19T21:04:31.710Z,94730.75
2019-05-19T21:07:07.547Z,94726.95
2019-05-19T21:09:39.375Z,94727.53
2019-05-19T21:12:12.820Z,94729.48
2019-05-19T21:14:45.901Z,94737.94
2019-05-19T21:17:18.999Z,94744.27
2019-05-19T21:19:52.150Z,94744.05
2019-05-19T21:22:25.725Z,94755.27
2019-05-19T21:24:58.960Z,94761.84
2019-05-19T21:27:32.930Z,94760.20
2019-05-19T21:30:06.989Z,94767.47
2019-05-19T21:32:41.584Z,94771.63
2019-05-19T21:35:13.922Z,94761.52
2019-05-19T21:37:48.439Z,94764.28
2019-05-19T21:40:21.470Z,94768.05
2019-05-19T21:42:54.977Z,94762.78
2019-05-19T21:45:28.654Z,94767.39
2019-05-19T21:48:02.045Z,94767.28
2019-05-19T21:50:35.864Z,94764.25
2019-05-19T21:53:07.192Z,94765.36
2019-05-19T21:55:39.899Z,94761.70
2019-05-19T21:58:14.721Z,94758.05
2019-05-19T22:00:46.911Z,94757.09
2019-05-19T22:03:19.233Z,94748.76
2019-05-19T22:05:53.746Z,94744.69
2019-05-19T22:08:25.274Z,94739.17
2019-05-19T22:10:58.012Z,94740.01
2019-05-19T22:13:29.303Z,94728.44
2019-05-19T22:16:12.245Z,94727.11
2019-05-19T22:18:38.468Z,94734.50
2019-05-19T22:21:10.720Z,94733.95
2019-05-19T22:23:45.879Z,94736.66
2019-05-19T22:26:19.347Z,94732.97
2019-05-19T22:28:53.553Z,94734.53
2019-05-19T22:31:36.179Z,94735.84
2019-05-19T22:34:03.116Z,94731.31
2019-05-19T22:36:34.727Z,94738.91
2019-05-19T22:39:07.806Z,94730.56
2019-05-19T22:41:44.431Z,94733.28
2019-05-19T22:44:16.403Z,94727.27
2019-05-19T22:46:49.567Z,94726.71
2019-05-19T22:49:22.166Z,94724.91
2019-05-19T22:51:54.751Z,94726.58
2019-05-19T22:54:28.789Z,94724.80
2019-05-19T22:57:01.305Z,94726.20
2019-05-19T22:59:32.484Z,94716.94
2019-05-19T23:02:05.488Z,94723.48
2019-05-19T23:04:39.854Z,94720.90
2019-05-19T23:07:13.368Z,94725.75
2019-05-19T23:09:48.855Z,94720.78
2019-05-19T23:12:20.556Z,94719.16
2019-05-19T23:14:52.495Z,94708.73
2019-05-19T23:17:25.478Z,94710.85
2019-05-19T23:19:58.528Z,94710.87
2019-05-19T23:22:31.351Z,94710.20
2019-05-19T23:25:03.810Z,94706.78
2019-05-19T23:27:36.545Z,94701.18
2019-05-19T23:30:09.009Z,94700.55
2019-05-19T23:32:40.449Z,94699.11
2019-05-19T23:35:14.691Z,94693.12
2019-05-19T23:37:47.670Z,94694.92
2019-05-19T23:40:20.734Z,94691.89
2019-05-19T23:42:53.657Z,94705.42
2019-05-19T23:45:29.883Z,94708.08
2019-05-19T23:48:01.573Z,94701.58
2019-05-19T23:50:36.625Z,94696.63
2019-05-19T23:53:11.406Z,94693.73
2019-05-19T23:55:43.660Z,94700.34
2019-05-19T23:58:16.746Z,94698.91
